Time;durP1;ratioP1;P1;durP2;ratioP2;P2;SDS_P1;SDS_P2;PMS_P1;PMS_P2;Temp;Humidity;BMP_temperature;BMP_pressure;BME280_temperature;BME280_humidity;BME280_pressure;Samples;Min_cycle;Max_cycle;Signal;HPM_P1;HPM_P2
2023/05/13 00:01:16;;;;;;;13.68;9.70;;;;;;;10.60;100.00;99937.50;12198164;19;20006;-81
2023/05/13 00:05:29;;;;;;;14.60;10.55;;;;;;;10.55;100.00;99923.63;12220528;19;20014;-81
2023/05/13 00:09:33;;;;;;;12.63;9.32;;;;;;;10.49;100.00;99919.91;12200187;19;20289;-84
2023/05/13 00:13:39;;;;;;;15.15;9.00;;;;;;;10.43;100.00;99899.69;12219524;19;20404;-81
2023/05/13 00:17:46;;;;;;;14.30;9.63;;;;;;;10.40;100.00;99902.94;12222706;19;20410;-83
2023/05/13 00:21:52;;;;;;;12.02;8.05;;;;;;;10.39;100.00;99900.47;12197550;19;20007;-82
2023/05/13 00:26:01;;;;;;;12.05;7.95;;;;;;;10.38;100.00;99896.00;12213031;19;20123;-83
2023/05/13 00:30:07;;;;;;;11.40;7.38;;;;;;;10.37;100.00;99897.09;12217946;19;20038;-82
2023/05/13 00:34:18;;;;;;;19.75;8.20;;;;;;;10.36;100.00;99896.28;12197915;19;20475;-82
2023/05/13 00:38:29;;;;;;;12.65;7.68;;;;;;;10.37;100.00;99903.44;12211402;19;20023;-82
2023/05/13 00:42:38;;;;;;;11.63;7.25;;;;;;;10.38;100.00;99901.53;12191555;19;20027;-83
2023/05/13 00:46:42;;;;;;;11.02;7.38;;;;;;;10.37;100.00;99895.19;12217700;19;20360;-82
2023/05/13 00:50:47;;;;;;;12.95;7.80;;;;;;;10.33;100.00;99902.28;12217256;19;20613;-82
2023/05/13 00:54:53;;;;;;;11.25;6.82;;;;;;;10.29;100.00;99898.31;12185845;19;20063;-83
2023/05/13 00:59:00;;;;;;;12.52;7.47;;;;;;;10.26;100.00;99896.91;12215394;19;20002;-82
2023/05/13 01:03:22;;;;;;;13.88;8.85;;;;;;;10.27;100.00;99898.59;12218929;19;20010;-82
2023/05/13 01:07:52;;;;;;;14.27;7.82;;;;;;;10.29;100.00;99903.00;12200920;19;20029;-83
2023/05/13 01:12:02;;;;;;;10.85;6.50;;;;;;;10.28;100.00;99896.66;12217972;19;20025;-83
2023/05/13 01:16:30;;;;;;;12.32;7.72;;;;;;;10.33;100.00;99913.28;12193949;19;20042;-82
2023/05/13 01:20:39;;;;;;;12.60;8.25;;;;;;;10.38;100.00;99909.78;12215777;19;20484;-82
2023/05/13 01:25:00;;;;;;;11.25;7.13;;;;;;;10.43;100.00;99918.16;12187018;19;20014;-82
2023/05/13 01:29:04;;;;;;;14.07;8.50;;;;;;;10.43;100.00;99920.91;12206992;19;20014;-83
2023/05/13 01:33:18;;;;;;;11.95;7.85;;;;;;;10.43;100.00;99918.97;12212456;19;20122;-83
2023/05/13 01:37:28;;;;;;;11.45;7.57;;;;;;;10.40;100.00;99925.00;12192561;19;20031;-81
2023/05/13 01:41:32;;;;;;;11.98;8.35;;;;;;;10.37;100.00;99914.47;12213128;19;20870;-80
2023/05/13 01:45:41;;;;;;;11.57;7.88;;;;;;;10.35;100.00;99913.91;12193552;19;20514;-82
2023/05/13 01:49:46;;;;;;;11.32;7.75;;;;;;;10.32;100.00;99905.25;12209472;19;20495;-81
2023/05/13 01:53:52;;;;;;;14.18;7.78;;;;;;;10.31;100.00;99909.94;12213682;19;20011;-83
2023/05/13 01:58:00;;;;;;;12.90;8.07;;;;;;;10.30;100.00;99919.28;12191562;19;20014;-82
2023/05/13 02:02:04;;;;;;;14.02;8.45;;;;;;;10.30;100.00;99926.72;12213541;19;20089;-82
2023/05/13 02:06:10;;;;;;;12.63;7.40;;;;;;;10.30;100.00;99927.56;12215956;19;20018;-84
2023/05/13 02:10:15;;;;;;;15.07;9.35;;;;;;;10.31;100.00;99923.72;12194407;19;20486;-84
2023/05/13 02:14:19;;;;;;;11.38;8.65;;;;;;;10.33;100.00;99924.31;12214780;19;20078;-81
2023/05/13 02:18:22;;;;;;;13.10;8.65;;;;;;;10.36;100.00;99923.00;12214266;19;20007;-82
2023/05/13 02:22:32;;;;;;;12.98;8.70;;;;;;;10.39;100.00;99922.50;12190957;19;20023;-82
2023/05/13 02:26:43;;;;;;;11.93;7.13;;;;;;;10.43;100.00;99921.75;12210502;19;20010;-81
2023/05/13 02:30:46;;;;;;;10.88;7.88;;;;;;;10.51;100.00;99923.28;12190260;19;20107;-82
2023/05/13 02:34:55;;;;;;;12.93;7.65;;;;;;;10.59;100.00;99913.75;12218540;19;20061;-84
2023/05/13 02:39:07;;;;;;;11.55;6.80;;;;;;;10.63;100.00;99910.28;12235916;19;20604;-81
2023/05/13 02:43:16;;;;;;;10.63;6.53;;;;;;;10.69;100.00;99891.91;12207677;19;20010;-83
2023/05/13 02:47:27;;;;;;;10.80;7.82;;;;;;;10.69;100.00;99903.75;12228173;19;20003;-81
2023/05/13 02:51:37;;;;;;;10.32;6.00;;;;;;;10.61;100.00;99901.41;12199748;19;20020;-81
2023/05/13 02:55:43;;;;;;;11.40;6.93;;;;;;;10.50;100.00;99902.34;12223257;19;20524;-83
2023/05/13 02:59:54;;;;;;;13.20;7.45;;;;;;;10.39;100.00;99898.53;12223817;19;20471;-84
2023/05/13 03:04:04;;;;;;;10.30;7.13;;;;;;;10.25;100.00;99889.69;12199535;19;20041;-83
2023/05/13 03:08:10;;;;;;;11.07;6.90;;;;;;;10.18;100.00;99888.19;12223481;19;20551;-84
2023/05/13 03:12:21;;;;;;;11.85;7.30;;;;;;;10.10;100.00;99903.16;12225182;19;20065;-84
2023/05/13 03:16:28;;;;;;;11.63;7.28;;;;;;;10.03;100.00;99911.56;12201083;19;20013;-82
2023/05/13 03:20:40;;;;;;;12.60;7.35;;;;;;;9.97;100.00;99906.22;12224214;19;20491;-82
2023/05/13 03:24:53;;;;;;;11.52;7.32;;;;;;;9.90;100.00;99914.56;12202605;19;20008;-82
2023/05/13 03:29:02;;;;;;;13.82;7.90;;;;;;;9.88;100.00;99922.25;12227110;19;20058;-82
2023/05/13 03:33:24;;;;;;;13.27;8.60;;;;;;;9.86;100.00;99916.16;12222527;19;20031;-83
2023/05/13 03:37:28;;;;;;;10.98;7.50;;;;;;;9.82;100.00;99910.31;12205154;19;20010;-83
2023/05/13 03:41:32;;;;;;;12.48;8.95;;;;;;;9.80;100.00;99911.63;12226542;19;20817;-82
2023/05/13 03:45:47;;;;;;;13.43;8.18;;;;;;;9.78;100.00;99913.78;12199150;19;21006;-84
2023/05/13 03:49:58;;;;;;;14.82;8.23;;;;;;;9.70;100.00;99901.25;12224057;19;20010;-83
2023/05/13 03:54:09;;;;;;;13.27;8.70;;;;;;;9.70;100.00;99905.91;12217310;19;20010;-83
2023/05/13 03:58:17;;;;;;;9.55;7.90;;;;;;;9.69;100.00;99924.31;12199299;19;20667;-82
2023/05/13 04:02:29;;;;;;;10.82;8.02;;;;;;;9.68;100.00;99921.81;12218873;19;20002;-83
2023/05/13 04:06:42;;;;;;;12.75;7.30;;;;;;;9.74;100.00;99929.94;12198155;19;20351;-83
2023/05/13 04:11:08;;;;;;;11.65;8.13;;;;;;;9.85;100.00;99925.50;12221614;19;20010;-82
2023/05/13 04:15:12;;;;;;;14.05;7.47;;;;;;;9.95;100.00;99931.22;12220620;19;20608;-82
2023/05/13 04:19:19;;;;;;;13.57;8.00;;;;;;;10.04;100.00;99934.44;12196118;19;20387;-84
2023/05/13 04:23:27;;;;;;;14.35;7.65;;;;;;;10.15;100.00;99936.31;12215706;19;20060;-81
2023/05/13 04:27:34;;;;;;;12.65;7.35;;;;;;;10.31;100.00;99940.22;12196666;19;20033;-82
2023/05/13 04:31:49;;;;;;;13.15;6.72;;;;;;;10.54;100.00;99930.22;12218478;19;20011;-82
2023/05/13 04:35:59;;;;;;;9.65;6.13;;;;;;;10.79;100.00;99932.59;12215209;19;20050;-83
2023/05/13 04:40:11;;;;;;;8.18;6.18;;;;;;;10.94;100.00;99930.94;12195204;19;20023;-82
2023/05/13 04:44:26;;;;;;;7.93;5.47;;;;;;;11.03;100.00;99941.56;12215281;19;20486;-82
2023/05/13 04:48:36;;;;;;;8.20;5.53;;;;;;;11.00;100.00;99947.56;12195814;19;20114;-82
2023/05/13 04:52:43;;;;;;;10.07;6.28;;;;;;;10.95;100.00;99945.56;12217034;19;20022;-83
2023/05/13 04:56:50;;;;;;;10.75;5.65;;;;;;;10.92;100.00;99946.91;12211685;19;20802;-82
2023/05/13 05:01:01;;;;;;;8.90;5.32;;;;;;;10.90;100.00;99943.56;12192561;19;20029;-83
2023/05/13 05:05:08;;;;;;;7.07;4.72;;;;;;;10.94;100.00;99955.75;12212418;19;20010;-82
2023/05/13 05:09:20;;;;;;;7.72;5.00;;;;;;;11.08;100.00;99969.22;12216811;19;20006;-82
2023/05/13 05:13:30;;;;;;;7.28;5.28;;;;;;;11.13;100.00;99970.16;12194053;19;20007;-81
2023/05/13 05:17:37;;;;;;;7.65;5.30;;;;;;;11.16;100.00;99968.81;12216978;19;20023;-83
2023/05/13 05:21:57;;;;;;;6.68;5.25;;;;;;;11.24;100.00;99973.06;12195016;19;20031;-83
2023/05/13 05:26:02;;;;;;;5.80;4.57;;;;;;;11.33;100.00;99974.31;12213648;19;20041;-82
2023/05/13 05:30:19;;;;;;;8.23;5.18;;;;;;;11.38;100.00;99978.00;12218141;19;20479;-83
2023/05/13 05:34:32;;;;;;;8.35;5.20;;;;;;;11.40;100.00;99969.50;12192445;19;20093;-82
2023/05/13 05:38:38;;;;;;;6.35;4.40;;;;;;;11.39;100.00;99979.69;12214094;19;20007;-82
2023/05/13 05:42:47;;;;;;;7.38;4.65;;;;;;;11.44;100.00;99983.63;12193881;19;20022;-83
2023/05/13 05:46:58;;;;;;;6.78;4.80;;;;;;;11.58;100.00;99980.25;12216703;19;20022;-82
2023/05/13 05:51:05;;;;;;;7.22;5.03;;;;;;;11.92;100.00;99983.00;12219230;19;20007;-81
2023/05/13 05:55:19;;;;;;;6.15;4.50;;;;;;;12.35;100.00;99980.53;12194036;19;20006;-81
2023/05/13 05:59:29;;;;;;;5.80;4.15;;;;;;;12.66;100.00;99982.53;12212395;19;20003;-82
2023/05/13 06:03:35;;;;;;;6.03;4.05;;;;;;;12.99;100.00;99983.44;12194742;19;20029;-83
2023/05/13 06:07:42;;;;;;;7.55;3.95;;;;;;;13.10;100.00;99989.91;12219103;19;20034;-81
2023/05/13 06:11:52;;;;;;;6.25;4.10;;;;;;;13.13;100.00;99993.00;12223699;19;20758;-82
2023/05/13 06:16:09;;;;;;;5.32;3.70;;;;;;;13.03;100.00;99995.66;12200374;19;20471;-82
2023/05/13 06:20:18;;;;;;;6.97;4.05;;;;;;;13.08;100.00;99998.47;12225601;19;20011;-81
2023/05/13 06:24:25;;;;;;;5.63;3.97;;;;;;;13.22;100.00;100001.66;12219002;19;20460;-82
2023/05/13 06:28:37;;;;;;;4.20;3.10;;;;;;;13.37;100.00;100003.75;12197160;19;20020;-81
2023/05/13 06:32:47;;;;;;;8.07;3.85;;;;;;;13.47;100.00;100003.81;12219332;19;20475;-83
2023/05/13 06:37:07;;;;;;;4.78;3.80;;;;;;;13.51;100.00;99998.63;12200118;19;20014;-82
2023/05/13 06:41:18;;;;;;;5.03;3.65;;;;;;;13.63;100.00;100007.56;12217649;19;20007;-81
2023/05/13 06:45:29;;;;;;;5.57;3.42;;;;;;;13.62;100.00;100006.75;12193673;19;20003;-79
2023/05/13 06:49:39;;;;;;;4.03;3.08;;;;;;;13.59;100.00;100012.81;12217697;19;20007;-80
2023/05/13 06:53:48;;;;;;;8.20;3.30;;;;;;;13.71;100.00;100015.34;12205741;19;20368;-80
2023/05/13 06:57:59;;;;;;;5.68;3.33;;;;;;;13.85;100.00;100015.75;12183676;19;20015;-81
2023/05/13 07:02:03;;;;;;;7.88;3.00;;;;;;;13.90;100.00;100024.94;12184055;19;21700;-80
2023/05/13 07:06:09;;;;;;;4.55;2.67;;;;;;;13.99;100.00;100016.13;12214459;19;20347;-81
2023/05/13 07:10:19;;;;;;;4.97;3.35;;;;;;;14.08;100.00;100009.81;12184067;19;20048;-79
2023/05/13 07:14:32;;;;;;;6.00;3.22;;;;;;;14.38;100.00;100008.28;12213768;19;20351;-81
2023/05/13 07:18:38;;;;;;;3.85;2.85;;;;;;;14.72;100.00;100007.91;12191989;19;20002;-80
2023/05/13 07:22:50;;;;;;;5.55;3.25;;;;;;;15.11;100.00;100012.97;12219399;19;20010;-80
2023/05/13 07:27:00;;;;;;;4.07;2.85;;;;;;;15.55;100.00;100004.13;12224428;19;20022;-81
2023/05/13 07:31:08;;;;;;;5.25;3.03;;;;;;;15.95;94.53;100009.69;12203498;19;20034;-81
2023/05/13 07:35:15;;;;;;;7.80;2.88;;;;;;;16.32;88.44;100008.47;12220468;19;20026;-79
2023/05/13 07:39:19;;;;;;;6.38;2.72;;;;;;;16.62;81.10;100007.50;12226035;19;20007;-81
2023/05/13 07:43:23;;;;;;;4.03;2.60;;;;;;;16.83;75.90;100013.84;12210004;19;20357;-79
2023/05/13 07:47:35;;;;;;;3.35;2.42;;;;;;;16.90;75.99;100013.56;12230017;19;20353;-82
2023/05/13 07:51:37;;;;;;;13.32;3.45;;;;;;;16.95;77.51;100019.06;12203873;19;20011;-81
2023/05/13 07:55:43;;;;;;;3.50;2.45;;;;;;;17.16;76.06;100019.78;12224543;19;20013;-82
2023/05/13 07:59:53;;;;;;;6.30;2.78;;;;;;;17.21;70.79;100014.19;12223797;19;20391;-81
2023/05/13 08:04:01;;;;;;;4.30;2.67;;;;;;;17.32;74.18;100014.94;12218898;19;20014;-80
2023/05/13 08:08:07;;;;;;;8.10;2.80;;;;;;;17.45;74.78;100005.91;12230445;19;20011;-81
2023/05/13 08:12:17;;;;;;;3.38;2.13;;;;;;;17.45;69.79;99997.56;12229322;19;20007;-81
2023/05/13 08:16:23;;;;;;;5.55;2.85;;;;;;;17.68;74.16;100009.91;12205711;19;20014;-81
2023/05/13 08:20:33;;;;;;;4.80;2.45;;;;;;;17.92;71.50;100007.22;12228120;19;20002;-81
2023/05/13 08:24:39;;;;;;;4.60;2.95;;;;;;;18.05;72.08;100005.69;12200945;19;20521;-81
2023/05/13 08:28:47;;;;;;;4.15;2.40;;;;;;;18.15;69.32;100007.53;12229588;19;20500;-82
2023/05/13 08:32:57;;;;;;;4.32;3.05;;;;;;;18.22;65.30;100008.00;12224121;19;20514;-81
2023/05/13 08:37:13;;;;;;;5.47;2.72;;;;;;;18.21;67.53;100015.56;12202219;19;20017;-82
2023/05/13 08:41:21;;;;;;;3.75;2.50;;;;;;;18.38;67.15;100003.94;12226455;19;20538;-80
2023/05/13 08:45:33;;;;;;;3.88;2.83;;;;;;;18.27;65.89;99996.81;12218822;19;20677;-81
2023/05/13 08:49:37;;;;;;;6.00;2.87;;;;;;;18.35;70.58;99998.09;12199792;19;20482;-79
2023/05/13 08:53:46;;;;;;;4.47;2.70;;;;;;;18.58;67.65;100002.00;12219496;19;20030;-81
2023/05/13 08:57:53;;;;;;;8.43;2.90;;;;;;;18.67;67.40;100001.03;12201094;19;20475;-81
2023/05/13 09:02:03;;;;;;;8.40;3.83;;;;;;;18.76;65.56;100001.25;12223091;19;20404;-79
2023/05/13 09:06:09;;;;;;;4.25;2.65;;;;;;;18.96;61.74;99993.72;12221002;19;20373;-81
2023/05/13 09:10:12;;;;;;;4.00;2.80;;;;;;;19.19;65.45;100008.75;12198530;19;20021;-80
2023/05/13 09:14:20;;;;;;;8.18;3.00;;;;;;;19.41;67.20;100019.31;12221108;19;20023;-80
2023/05/13 09:18:29;;;;;;;4.63;3.15;;;;;;;19.51;61.40;100008.81;12226217;19;20583;-84
2023/05/13 09:22:39;;;;;;;4.40;3.28;;;;;;;19.58;61.07;100006.44;12199970;19;20349;-82
2023/05/13 09:26:42;;;;;;;5.15;2.80;;;;;;;19.56;62.30;100007.88;12222909;19;20596;-81
2023/05/13 09:30:55;;;;;;;4.65;3.05;;;;;;;19.59;62.61;100016.47;12200081;19;20019;-82
2023/05/13 09:35:15;;;;;;;4.05;3.05;;;;;;;19.81;60.28;100001.06;12220402;19;20468;-80
2023/05/13 09:39:19;;;;;;;5.53;3.25;;;;;;;19.74;59.17;99995.00;12221762;19;20131;-80
2023/05/13 09:43:33;;;;;;;4.45;3.03;;;;;;;19.67;59.52;99994.59;12196885;19;20014;-79
2023/05/13 09:47:39;;;;;;;5.50;3.05;;;;;;;19.74;60.99;99992.22;12220988;19;20016;-83
2023/05/13 09:51:48;;;;;;;3.72;3.05;;;;;;;19.96;60.74;99991.56;12195678;19;20103;-81
2023/05/13 09:55:54;;;;;;;6.10;2.40;;;;;;;20.11;58.65;99988.47;12220114;19;20050;-82
2023/05/13 10:00:08;;;;;;;5.50;3.05;;;;;;;20.27;57.95;100000.19;12217325;19;20475;-81
2023/05/13 10:04:30;;;;;;;5.15;3.20;;;;;;;20.32;56.65;99993.69;12199249;19;20006;-80
2023/05/13 10:08:35;;;;;;;4.70;3.00;;;;;;;20.34;57.13;99980.19;12221650;19;20367;-80
2023/05/13 10:12:41;;;;;;;7.40;3.15;;;;;;;20.61;53.32;99982.16;12196707;19;20002;-81
2023/05/13 10:16:46;;;;;;;6.63;3.15;;;;;;;21.02;53.17;99981.25;12223241;19;20028;-82
2023/05/13 10:20:57;;;;;;;3.75;2.85;;;;;;;21.48;53.16;99977.41;12220347;19;20003;-80
2023/05/13 10:25:04;;;;;;;5.88;3.10;;;;;;;21.94;54.38;99963.00;12200044;19;20010;-80
2023/05/13 10:29:13;;;;;;;4.57;3.38;;;;;;;22.23;48.86;99968.13;12222813;19;20043;-78
2023/05/13 10:33:20;;;;;;;5.22;3.03;;;;;;;22.33;49.45;99966.16;12218142;19;20010;-79
2023/05/13 10:37:56;;;;;;;5.07;2.90;;;;;;;22.59;46.30;99947.41;12198974;19;20018;-79
2023/05/13 10:42:42;;;;;;;7.70;3.30;;;;;;;22.40;44.64;99956.13;12220143;19;20014;-79
2023/05/13 10:46:47;;;;;;;7.10;3.28;;;;;;;22.07;47.95;99964.03;12173345;19;20594;-76
2023/05/13 10:51:06;;;;;;;4.57;3.15;;;;;;;21.89;47.42;99949.09;12205509;19;20348;-78
2023/05/13 10:55:20;;;;;;;6.05;3.08;;;;;;;22.10;48.26;99946.59;12188125;19;20103;-79
2023/05/13 10:59:29;;;;;;;4.03;2.75;;;;;;;23.04;44.93;99940.72;12223928;19;20006;-76
2023/05/13 11:03:32;;;;;;;5.60;3.10;;;;;;;23.08;47.04;99952.97;12202892;19;20812;-81
2023/05/13 11:07:38;;;;;;;6.45;3.38;;;;;;;23.26;45.40;99931.28;12224699;19;20476;-81
2023/05/13 11:11:49;;;;;;;5.00;3.42;;;;;;;23.35;44.42;99929.28;12225720;19;20024;-77
2023/05/13 11:15:54;;;;;;;6.60;3.70;;;;;;;23.35;45.45;99929.28;12200399;19;20464;-85
2023/05/13 11:19:59;;;;;;;6.43;2.97;;;;;;;23.94;41.23;99909.81;12228839;19;20463;-76
2023/05/13 11:24:05;;;;;;;4.20;2.80;;;;;;;24.22;41.92;99917.81;12224558;19;20010;-80
2023/05/13 11:28:17;;;;;;;5.03;2.75;;;;;;;23.29;41.72;99913.75;12207090;19;20026;-80
2023/05/13 11:32:56;;;;;;;4.22;2.85;;;;;;;23.19;40.36;99921.38;12229175;19;20006;-79
2023/05/13 11:37:03;;;;;;;;;;;;;;;22.18;42.07;99922.53;12205144;19;20099;-79
2023/05/13 11:41:06;;;;;;;4.10;2.85;;;;;;;21.73;45.05;99928.22;12222424;19;20329;-79
2023/05/13 11:45:17;;;;;;;5.95;2.95;;;;;;;21.53;46.65;99923.97;12229503;19;20602;-85
2023/05/13 11:49:43;;;;;;;8.27;3.10;;;;;;;21.09;47.81;99920.00;12200406;19;20010;-81
2023/05/13 11:53:47;;;;;;;7.60;3.75;;;;;;;20.99;47.26;99921.09;12223024;19;20025;-82
2023/05/13 11:57:50;;;;;;;6.03;3.53;;;;;;;21.06;48.44;99915.03;12202383;19;20782;-84
2023/05/13 12:02:05;;;;;;;4.82;2.90;;;;;;;22.39;46.60;99911.53;12219732;19;20026;-82
2023/05/13 12:06:17;;;;;;;4.70;3.00;;;;;;;22.29;44.83;99905.06;12214047;19;20090;-84
2023/05/13 12:10:27;;;;;;;5.95;3.22;;;;;;;21.81;48.89;99914.25;12195706;19;20011;-82
2023/05/13 12:14:32;;;;;;;5.90;3.85;;;;;;;22.26;49.68;99911.31;12223179;19;20018;-80
2023/05/13 12:18:38;;;;;;;7.88;3.20;;;;;;;23.37;45.89;99893.25;12201612;19;20007;-77
2023/05/13 12:22:51;;;;;;;5.07;3.30;;;;;;;24.34;43.90;99884.94;12219273;19;20010;-77
2023/05/13 12:27:09;;;;;;;10.80;3.38;;;;;;;25.10;42.31;99893.53;12224083;19;20014;-80
2023/05/13 12:31:17;;;;;;;6.03;3.00;;;;;;;24.74;41.08;99907.09;12200989;19;20077;-81
2023/05/13 12:35:24;;;;;;;4.90;2.90;;;;;;;23.96;40.23;99915.94;12225102;19;20003;-83
2023/05/13 12:39:30;;;;;;;4.25;2.53;;;;;;;23.41;41.21;99917.56;12205251;19;20378;-81
2023/05/13 12:43:34;;;;;;;4.15;2.78;;;;;;;23.05;41.88;99923.53;12222698;19;20572;-80
2023/05/13 12:47:51;;;;;;;4.03;2.53;;;;;;;22.68;41.68;99925.78;12224204;19;20023;-81
2023/05/13 12:51:58;;;;;;;3.63;2.50;;;;;;;22.58;41.33;99923.31;12200840;19;20006;-82
2023/05/13 12:56:01;;;;;;;4.75;2.83;;;;;;;22.87;42.08;99933.91;12219990;19;20011;-83
2023/05/13 13:00:05;;;;;;;3.55;2.35;;;;;;;22.71;39.82;99927.94;12223087;19;20026;-81
2023/05/13 13:04:11;;;;;;;3.63;2.55;;;;;;;22.60;39.92;99928.59;12198076;19;20002;-79
2023/05/13 13:08:18;;;;;;;3.88;2.67;;;;;;;22.64;40.67;99933.22;12223509;19;20070;-82
2023/05/13 13:12:24;;;;;;;5.88;3.13;;;;;;;22.81;41.39;99937.19;12221137;19;20518;-80
2023/05/13 13:16:30;;;;;;;5.35;2.85;;;;;;;24.46;39.19;99925.69;12192745;19;20011;-79
2023/05/13 13:20:36;;;;;;;5.82;3.10;;;;;;;26.54;36.03;99936.97;12220355;19;20017;-81
2023/05/13 13:24:44;;;;;;;8.35;3.05;;;;;;;24.91;36.96;99951.22;12198689;19;20027;-81
2023/05/13 13:28:47;;;;;;;4.55;2.70;;;;;;;23.28;42.14;99965.53;12219832;19;20065;-78
2023/05/13 13:32:51;;;;;;;11.43;3.67;;;;;;;21.57;49.85;99965.09;12217623;19;20010;-78
2023/05/13 13:37:05;;;;;;;5.97;3.33;;;;;;;20.06;55.58;99968.16;12192209;19;20010;-77
2023/05/13 13:41:15;;;;;;;4.75;3.17;;;;;;;19.06;60.15;99955.28;12223799;19;20014;-80
2023/05/13 13:45:22;;;;;;;4.05;3.10;;;;;;;18.44;64.37;99954.47;12218952;19;20027;-79
2023/05/13 13:49:34;;;;;;;8.32;5.15;;;;;;;18.05;68.49;99943.50;12199557;19;20010;-79
2023/05/13 13:53:40;;;;;;;9.45;4.75;;;;;;;17.91;72.39;99927.50;12212288;19;20459;-77
2023/05/13 13:57:52;;;;;;;5.93;3.97;;;;;;;18.16;73.99;99923.56;12195246;19;20018;-77
2023/05/13 14:01:58;;;;;;;5.05;3.55;;;;;;;18.57;71.30;99927.81;12213013;19;20018;-78
2023/05/13 14:06:04;;;;;;;4.72;3.38;;;;;;;19.07;69.90;99931.81;12212091;19;20014;-77
2023/05/13 14:10:13;;;;;;;5.63;3.53;;;;;;;19.58;67.21;99924.56;12195093;19;20014;-78
2023/05/13 14:14:21;;;;;;;4.10;2.67;;;;;;;19.74;64.95;99906.38;12210861;19;20483;-77
2023/05/13 14:18:26;;;;;;;6.70;3.40;;;;;;;19.69;65.49;99912.09;12217119;19;20011;-79
2023/05/13 14:22:30;;;;;;;4.05;2.95;;;;;;;19.80;64.45;99909.91;12193424;19;20006;-77
2023/05/13 14:26:33;;;;;;;5.45;3.30;;;;;;;19.76;65.12;99909.69;12214072;19;19998;-79
2023/05/13 14:30:39;;;;;;;4.00;2.95;;;;;;;19.81;66.54;99897.59;12196288;19;20013;-80
2023/05/13 14:34:45;;;;;;;4.28;2.90;;;;;;;19.78;63.21;99896.25;12216669;19;20487;-80
2023/05/13 14:38:53;;;;;;;5.70;2.80;;;;;;;19.95;64.60;99905.97;12217044;19;20476;-77
2023/05/13 14:43:03;;;;;;;5.80;3.30;;;;;;;20.03;63.55;99891.28;12193503;19;20015;-78
2023/05/13 14:47:17;;;;;;;5.60;2.65;;;;;;;20.07;62.52;99899.88;12214989;19;20018;-78
2023/05/13 14:51:26;;;;;;;3.90;2.53;;;;;;;20.10;61.22;99899.25;12207879;19;20085;-80
2023/05/13 14:55:30;;;;;;;4.85;2.75;;;;;;;20.19;60.88;99898.19;12214276;19;20467;-78
2023/05/13 14:59:38;;;;;;;7.90;4.80;;;;;;;20.31;60.44;99892.06;12213907;19;20609;-78
2023/05/13 15:03:48;;;;;;;5.20;3.63;;;;;;;20.43;61.05;99878.38;12191768;19;20010;-78
2023/05/13 15:07:51;;;;;;;4.57;2.50;;;;;;;20.57;60.43;99886.78;12212846;19;20503;-77
2023/05/13 15:12:03;;;;;;;4.15;2.78;;;;;;;20.58;58.32;99890.41;12210654;19;20013;-78
2023/05/13 15:16:07;;;;;;;3.88;2.63;;;;;;;20.59;59.04;99878.91;12184352;19;20430;-79
2023/05/13 15:20:13;;;;;;;5.47;2.90;;;;;;;20.82;57.49;99876.97;12213528;19;20540;-82
2023/05/13 15:24:16;;;;;;;5.55;2.65;;;;;;;20.91;56.30;99877.88;12209564;19;20018;-82
2023/05/13 15:28:23;;;;;;;5.38;2.72;;;;;;;20.88;55.61;99878.50;12190039;19;20018;-78
2023/05/13 15:32:29;;;;;;;6.38;2.80;;;;;;;20.63;55.74;99870.69;12209974;19;20039;-81
2023/05/13 15:36:36;;;;;;;3.88;2.72;;;;;;;20.57;55.41;99872.78;12187958;19;20014;-78
2023/05/13 15:40:39;;;;;;;5.40;2.80;;;;;;;20.62;52.48;99883.06;12208200;19;20041;-81
2023/05/13 15:44:44;;;;;;;5.28;2.50;;;;;;;20.62;54.44;99869.06;12213405;19;20019;-78
2023/05/13 15:48:50;;;;;;;3.85;2.67;;;;;;;20.55;53.33;99880.66;12197474;19;20003;-78
2023/05/13 15:52:58;;;;;;;5.75;2.85;;;;;;;20.42;53.37;99870.31;12222142;19;20006;-78
2023/05/13 15:57:05;;;;;;;6.43;2.72;;;;;;;20.29;50.67;99872.00;12220007;19;20003;-78
2023/05/13 16:01:09;;;;;;;6.07;2.80;;;;;;;20.35;52.61;99872.72;12198764;19;20030;-79
2023/05/13 16:05:14;;;;;;;5.00;3.45;;;;;;;20.36;51.47;99875.19;12220620;19;20409;-80
2023/05/13 16:09:17;;;;;;;4.57;2.70;;;;;;;20.36;51.20;99875.19;12222105;19;20023;-83
2023/05/13 16:13:27;;;;;;;7.25;2.22;;;;;;;20.25;50.07;99862.56;12198431;19;20506;-79
2023/05/13 16:17:35;;;;;;;3.97;2.47;;;;;;;20.20;49.39;99879.47;12218505;19;20019;-81
2023/05/13 16:21:41;;;;;;;4.85;2.67;;;;;;;20.19;48.43;99867.44;12199004;19;20027;-79
2023/05/13 16:25:44;;;;;;;4.32;2.13;;;;;;;20.02;48.04;99856.91;12216720;19;20395;-78
2023/05/13 16:29:50;;;;;;;6.40;2.40;;;;;;;19.79;49.08;99855.97;12224854;19;20006;-80
2023/05/13 16:33:56;;;;;;;3.97;2.45;;;;;;;19.57;49.01;99867.81;12199002;19;20460;-78
2023/05/13 16:38:02;;;;;;;4.38;2.50;;;;;;;19.45;50.21;99873.06;12222320;19;20011;-79
2023/05/13 16:42:06;;;;;;;4.43;2.47;;;;;;;19.27;50.71;99862.78;12222181;19;20479;-78
2023/05/13 16:46:12;;;;;;;5.28;2.67;;;;;;;19.01;52.52;99862.41;12197700;19;20013;-79
2023/05/13 16:50:17;;;;;;;4.40;2.22;;;;;;;18.86;54.06;99858.72;12223286;19;20487;-78
2023/05/13 16:54:30;;;;;;;6.18;3.75;;;;;;;18.66;54.22;99864.59;12218087;19;20030;-78
2023/05/13 16:58:35;;;;;;;5.75;2.80;;;;;;;18.55;54.60;99863.06;12193860;19;20031;-81
2023/05/13 17:02:41;;;;;;;3.75;2.70;;;;;;;18.53;55.24;99866.19;12222935;19;20002;-78
2023/05/13 17:06:47;;;;;;;6.20;3.13;;;;;;;18.47;55.33;99858.16;12195111;19;20051;-81
2023/05/13 17:10:56;;;;;;;6.53;2.70;;;;;;;18.36;55.91;99861.13;12219618;19;20746;-81
2023/05/13 17:15:08;;;;;;;3.83;3.05;;;;;;;18.24;56.68;99855.16;12223275;19;20027;-78
2023/05/13 17:19:15;;;;;;;5.22;3.05;;;;;;;18.22;59.39;99862.97;12197814;19;20006;-78
2023/05/13 17:23:28;;;;;;;4.70;3.15;;;;;;;18.11;57.67;99859.47;12218340;19;20078;-78
2023/05/13 17:27:34;;;;;;;4.90;3.28;;;;;;;18.01;59.77;99859.63;12201291;19;20087;-78
2023/05/13 17:31:42;;;;;;;8.93;3.33;;;;;;;17.94;61.50;99856.38;12230060;19;20002;-80
2023/05/13 17:35:46;;;;;;;3.85;3.08;;;;;;;17.79;63.92;99857.41;12228330;19;20013;-79
2023/05/13 17:39:59;;;;;;;6.90;3.10;;;;;;;17.70;66.42;99859.97;12201610;19;20018;-79
2023/05/13 17:44:07;;;;;;;4.78;2.72;;;;;;;17.71;65.41;99867.19;12218776;19;20611;-78
2023/05/13 17:48:18;;;;;;;5.38;2.60;;;;;;;17.71;66.90;99869.97;12221960;19;20017;-79
2023/05/13 17:52:21;;;;;;;5.05;3.00;;;;;;;17.66;67.14;99874.78;12199236;19;20026;-81
2023/05/13 17:56:27;;;;;;;4.32;3.13;;;;;;;17.70;70.15;99870.28;12218106;19;20014;-79
2023/05/13 18:00:36;;;;;;;4.40;3.10;;;;;;;17.67;67.81;99871.72;12197473;19;20015;-78
2023/05/13 18:04:39;;;;;;;4.90;3.00;;;;;;;17.66;69.75;99880.34;12220729;19;20026;-77
2023/05/13 18:08:42;;;;;;;3.80;2.75;;;;;;;17.68;70.12;99883.69;12218166;19;20011;-78
2023/05/13 18:12:47;;;;;;;;;;;;;;;17.65;68.73;99885.09;12201195;19;20015;-79
2023/05/13 18:17:01;;;;;;;4.75;2.67;;;;;;;17.67;69.12;99884.81;12212456;19;19919;-84
2023/05/13 18:21:05;;;;;;;8.40;3.10;;;;;;;17.57;69.46;99876.56;12213042;19;20027;-83
2023/05/13 18:25:07;;;;;;;;;;;;;;;17.36;69.85;99882.31;12197087;19;20027;-83
2023/05/13 18:29:13;;;;;;;;;;;;;;;17.21;68.90;99879.69;12215624;19;19974;-84
2023/05/13 18:33:21;;;;;;;7.60;4.90;;;;;;;17.08;71.20;99882.03;12222019;19;19919;-84
2023/05/13 18:37:24;;;;;;;11.70;7.88;;;;;;;16.90;71.09;99891.09;12192418;19;20030;-84
2023/05/13 18:41:30;;;;;;;9.98;5.30;;;;;;;16.70;74.20;99908.72;12213294;19;20024;-84
2023/05/13 18:45:38;;;;;;;7.32;4.25;;;;;;;16.48;79.23;99906.34;12191278;19;20469;-82
2023/05/13 18:49:45;;;;;;;6.35;4.18;;;;;;;16.25;82.83;99907.84;12219537;19;20021;-84
2023/05/13 18:53:48;;;;;;;8.15;3.78;;;;;;;15.98;86.17;99924.94;12215282;19;20508;-83
2023/05/13 18:57:53;;;;;;;8.23;3.90;;;;;;;15.70;89.05;99923.59;12189498;19;20030;-85
2023/05/13 19:02:00;;;;;;;7.28;4.43;;;;;;;15.44;91.81;99929.16;12211904;19;20034;-83
2023/05/13 19:06:05;;;;;;;9.15;3.97;;;;;;;15.19;92.81;99927.22;12223570;19;20011;-84